KNKX

Miramar MCAS Airport

San Diego, California, USA
METAR KNKX 151255Z 11003KT 10SM CLR 11/M12 A3007 RMK AO2 SLP180 T01111117
Observed Flight Rules
Nov-15 @ 12:55 UTC (23 minutes ago) Visual Flight Rules
Wind Visibility Clouds
110° at 3 knots 10 miles
  • Clear skies
Temperatures Readings
Current 11°C / 52°F
Dewpoint -12°C / 10°F
Humidity 19%
Altimeter 30.07" Hg
Pressure 1018 hPa
Elevation 146
METAR KNKX 151255Z 11003KT 10SM CLR 11/M12 A3007 RMK AO2 SLP180 T01111117
Observed Flight Rules
Nov-15 @ 12:55 UTC
(23 minutes ago)
VFR
Wind Visibility
110° at 3 knots 10 miles
Clouds
  • Clear skies
Temperature Dewpoint
11°C / 52°F -12°C / 10°F
Humidity Altimeter Pressure
19% 30.07" Hg 1018 hPa